Time;durP1;ratioP1;P1;durP2;ratioP2;P2;SDS_P1;SDS_P2;PMS_P1;PMS_P2;Temp;Humidity;BMP_temperature;BMP_pressure;BME280_temperature;BME280_humidity;BME280_pressure;Samples;Min_cycle;Max_cycle;Signal;HPM_P1;HPM_P2
2024/03/26 00:01:18;;;;;;;17.33;9.10;;;2.10;99.90;;;;;;4167187;28;20347;-57
2024/03/26 00:03:19;;;;;;;17.73;8.87;;;2.10;99.90;;;;;;4168254;28;20269;-55
2024/03/26 00:05:21;;;;;;;17.97;9.70;;;2.10;99.90;;;;;;4167025;28;20374;-55
2024/03/26 00:07:22;;;;;;;25.10;10.77;;;2.10;99.90;;;;;;4165691;28;20286;-58
2024/03/26 00:09:23;;;;;;;21.20;9.13;;;2.00;99.90;;;;;;4163300;28;21010;-57
2024/03/26 00:11:24;;;;;;;19.07;9.67;;;1.90;99.90;;;;;;4170637;28;20317;-56
2024/03/26 00:13:26;;;;;;;15.93;9.47;;;1.90;99.90;;;;;;4167469;28;20657;-53
2024/03/26 00:15:28;;;;;;;15.30;8.07;;;1.80;99.90;;;;;;4168514;28;20258;-56
2024/03/26 00:17:29;;;;;;;14.17;7.67;;;1.70;99.90;;;;;;4168251;28;20287;-56
2024/03/26 00:19:30;;;;;;;14.23;7.83;;;1.60;99.90;;;;;;4167288;28;20773;-59
2024/03/26 00:21:32;;;;;;;13.67;7.13;;;1.40;99.90;;;;;;4163896;28;20304;-59
2024/03/26 00:23:33;;;;;;;14.80;6.97;;;1.40;99.90;;;;;;4166778;28;20274;-55
2024/03/26 00:25:34;;;;;;;13.50;7.23;;;1.30;99.90;;;;;;4167680;28;20329;-57
2024/03/26 00:27:35;;;;;;;13.73;6.83;;;1.30;99.90;;;;;;4166463;28;20325;-56
2024/03/26 00:29:37;;;;;;;13.03;6.50;;;1.20;99.90;;;;;;4168381;28;21376;-57
2024/03/26 00:31:38;;;;;;;11.73;6.80;;;1.20;99.90;;;;;;4166250;28;20310;-56
2024/03/26 00:33:39;;;;;;;15.60;7.63;;;1.20;99.90;;;;;;4168210;28;20255;-53
2024/03/26 00:35:40;;;;;;;18.03;7.73;;;1.20;99.90;;;;;;4174729;28;20269;-58
2024/03/26 00:37:42;;;;;;;19.63;9.30;;;1.20;99.90;;;;;;4178264;28;20278;-56
2024/03/26 00:39:43;;;;;;;12.37;7.47;;;1.20;99.90;;;;;;4177437;28;20285;-56
2024/03/26 00:41:44;;;;;;;17.13;8.07;;;1.20;99.90;;;;;;4178380;28;20273;-54
2024/03/26 00:43:46;;;;;;;14.83;8.07;;;1.20;99.90;;;;;;4177801;28;20266;-55
2024/03/26 00:45:47;;;;;;;18.47;7.90;;;1.20;99.90;;;;;;4177346;28;20266;-56
2024/03/26 00:47:48;;;;;;;16.57;8.03;;;1.20;99.90;;;;;;4171769;28;20270;-55
2024/03/26 00:49:50;;;;;;;13.20;7.47;;;1.30;99.90;;;;;;4167260;28;20670;-58
2024/03/26 00:51:51;;;;;;;14.23;7.73;;;1.20;99.90;;;;;;4162331;28;20677;-57
2024/03/26 00:53:52;;;;;;;15.63;8.23;;;1.30;99.90;;;;;;4160270;28;20271;-52
2024/03/26 00:55:53;;;;;;;14.07;7.90;;;1.20;99.90;;;;;;4161400;28;20337;-56
2024/03/26 00:57:54;;;;;;;14.20;8.17;;;1.20;99.90;;;;;;4160228;28;20266;-51
2024/03/26 00:59:56;;;;;;;12.93;7.73;;;1.10;99.90;;;;;;4164365;28;20274;-54
2024/03/26 01:01:57;;;;;;;20.30;9.93;;;1.10;99.90;;;;;;4162386;28;20968;-55
2024/03/26 01:03:58;;;;;;;33.00;13.23;;;1.10;99.90;;;;;;4166341;28;20279;-56
2024/03/26 01:05:59;;;;;;;26.50;10.30;;;1.00;99.90;;;;;;4165524;28;20289;-54
2024/03/26 01:08:01;;;;;;;21.67;9.23;;;0.90;99.90;;;;;;4166779;28;20674;-55
2024/03/26 01:10:02;;;;;;;15.33;8.67;;;0.80;99.90;;;;;;4165728;28;20338;-58
2024/03/26 01:12:03;;;;;;;17.17;7.73;;;0.80;99.90;;;;;;4166956;28;20270;-57
2024/03/26 01:14:05;;;;;;;12.03;7.00;;;0.80;99.90;;;;;;4166135;28;20251;-56
2024/03/26 01:16:06;;;;;;;15.23;7.07;;;0.70;99.90;;;;;;4161036;28;20309;-55
2024/03/26 01:18:08;;;;;;;13.40;7.30;;;0.70;99.90;;;;;;4163336;28;20317;-55
2024/03/26 01:20:10;;;;;;;13.10;7.50;;;0.70;99.90;;;;;;4165944;28;20706;-56
2024/03/26 01:22:12;;;;;;;14.40;8.13;;;0.60;99.90;;;;;;4167373;28;20737;-54
2024/03/26 01:24:13;;;;;;;15.93;8.13;;;0.60;99.90;;;;;;4166083;28;20332;-53
2024/03/26 01:26:14;;;;;;;13.57;7.37;;;0.60;99.90;;;;;;4167045;28;20274;-56
2024/03/26 01:28:15;;;;;;;12.87;7.87;;;0.60;99.90;;;;;;4169735;28;20309;-55
2024/03/26 01:30:17;;;;;;;19.67;8.67;;;0.70;99.90;;;;;;4166886;28;20283;-56
2024/03/26 01:32:18;;;;;;;19.00;9.10;;;0.70;99.90;;;;;;4166095;28;20266;-53
2024/03/26 01:34:19;;;;;;;28.10;11.00;;;0.60;99.90;;;;;;4166979;28;20320;-53
2024/03/26 01:36:21;;;;;;;18.10;10.47;;;0.70;99.90;;;;;;4166282;28;20713;-54
2024/03/26 01:38:22;;;;;;;20.60;10.67;;;0.70;99.90;;;;;;4167620;28;20262;-58
2024/03/26 01:40:24;;;;;;;19.97;9.57;;;0.70;99.90;;;;;;4171992;28;20742;-54
2024/03/26 01:42:25;;;;;;;18.80;9.63;;;0.70;99.90;;;;;;4176909;28;20315;-52
2024/03/26 01:44:26;;;;;;;17.77;10.00;;;0.70;99.90;;;;;;4166349;28;20755;-56
2024/03/26 01:46:28;;;;;;;22.10;11.60;;;0.70;99.90;;;;;;4166034;28;20327;-55
2024/03/26 01:48:29;;;;;;;20.13;10.57;;;0.70;99.90;;;;;;4166499;28;20294;-54
2024/03/26 01:50:31;;;;;;;21.27;12.00;;;0.70;99.90;;;;;;4164360;28;20643;-49
2024/03/26 01:52:32;;;;;;;20.00;10.37;;;0.70;99.90;;;;;;4167243;28;20265;-54
2024/03/26 01:54:34;;;;;;;22.33;11.73;;;0.70;99.90;;;;;;4166220;28;20278;-56
2024/03/26 01:56:35;;;;;;;20.47;11.00;;;0.70;99.90;;;;;;4168647;28;20286;-56
2024/03/26 01:58:37;;;;;;;21.03;11.27;;;0.70;99.90;;;;;;4176753;28;20710;-55
2024/03/26 02:00:40;;;;;;;19.93;9.80;;;0.70;99.90;;;;;;4177546;28;20331;-51
2024/03/26 02:02:41;;;;;;;21.30;10.43;;;0.70;99.90;;;;;;4176052;28;20324;-53
2024/03/26 02:04:45;;;;;;;17.37;9.37;;;0.70;99.90;;;;;;4177340;28;20332;-51
2024/03/26 02:06:46;;;;;;;19.93;10.40;;;0.70;99.90;;;;;;4176165;28;20282;-50
2024/03/26 02:08:48;;;;;;;18.90;9.70;;;0.70;99.90;;;;;;4170471;28;20746;-53
2024/03/26 02:10:50;;;;;;;16.63;7.83;;;0.70;99.90;;;;;;4164617;28;20267;-48
2024/03/26 02:12:51;;;;;;;15.63;8.27;;;0.70;99.90;;;;;;4160687;28;20270;-51
2024/03/26 02:14:52;;;;;;;19.43;9.07;;;0.70;99.90;;;;;;4158745;28;20806;-53
2024/03/26 02:16:54;;;;;;;17.67;8.73;;;0.70;99.90;;;;;;4160106;28;20298;-51
2024/03/26 02:18:55;;;;;;;15.13;8.00;;;0.70;99.90;;;;;;4160495;28;20642;-55
2024/03/26 02:20:56;;;;;;;14.73;8.07;;;0.70;99.90;;;;;;4165054;28;20619;-54
2024/03/26 02:22:57;;;;;;;14.47;8.07;;;0.70;99.90;;;;;;4171480;28;20271;-54
2024/03/26 02:24:59;;;;;;;20.90;8.67;;;0.70;99.90;;;;;;4165922;28;21086;-56
2024/03/26 02:27:00;;;;;;;10.77;7.27;;;0.60;99.90;;;;;;4168276;28;20722;-52
2024/03/26 02:29:01;;;;;;;14.30;7.97;;;0.60;99.90;;;;;;4168706;28;20282;-52
2024/03/26 02:31:03;;;;;;;16.30;7.47;;;0.60;99.90;;;;;;4169894;28;20336;-52
2024/03/26 02:33:04;;;;;;;16.70;8.13;;;0.60;99.90;;;;;;4177474;28;20274;-55
2024/03/26 02:35:06;;;;;;;14.17;7.60;;;0.50;99.90;;;;;;4180506;28;20274;-52
2024/03/26 02:37:07;;;;;;;15.00;7.33;;;0.40;99.90;;;;;;4173654;28;20290;-53
2024/03/26 02:39:08;;;;;;;13.27;8.00;;;0.30;99.90;;;;;;4170084;28;20339;-56
2024/03/26 02:41:10;;;;;;;18.50;8.00;;;0.30;99.90;;;;;;4170324;28;20977;-50
2024/03/26 02:43:12;;;;;;;12.87;7.43;;;0.20;99.90;;;;;;4169596;28;20329;-54
2024/03/26 02:45:14;;;;;;;26.47;9.90;;;0.10;99.90;;;;;;4165085;28;20263;-52
2024/03/26 02:47:15;;;;;;;17.43;8.33;;;0.10;99.90;;;;;;4164565;28;20324;-53
2024/03/26 02:49:16;;;;;;;18.93;8.80;;;0.10;99.90;;;;;;4168946;28;20319;-54
2024/03/26 02:51:17;;;;;;;19.33;8.13;;;0.10;99.90;;;;;;4166759;28;20358;-50
2024/03/26 02:53:23;;;;;;;17.87;7.83;;;0.00;99.90;;;;;;4163738;28;20313;-54
2024/03/26 02:55:24;;;;;;;17.10;7.67;;;0.00;99.90;;;;;;4162410;28;20309;-52
2024/03/26 02:57:25;;;;;;;17.40;8.53;;;0.00;99.90;;;;;;4163219;28;20290;-54
2024/03/26 02:59:26;;;;;;;12.93;7.20;;;0.00;99.90;;;;;;4164566;28;20316;-52
2024/03/26 03:01:28;;;;;;;13.63;6.10;;;-0.10;99.90;;;;;;4168282;28;20278;-52
2024/03/26 03:03:29;;;;;;;15.87;6.90;;;-0.10;99.90;;;;;;4168178;28;21877;-54
2024/03/26 03:05:30;;;;;;;11.93;6.70;;;-0.10;99.90;;;;;;4167101;28;20820;-50
2024/03/26 03:07:31;;;;;;;12.50;6.53;;;-0.20;99.90;;;;;;4162712;28;20865;-54
2024/03/26 03:09:33;;;;;;;14.53;6.77;;;-0.20;99.90;;;;;;4162032;28;20310;-56
2024/03/26 03:11:34;;;;;;;11.80;6.40;;;-0.20;99.90;;;;;;4163019;28;20283;-53
2024/03/26 03:13:35;;;;;;;16.07;6.57;;;-0.20;99.90;;;;;;4163566;28;20305;-53
2024/03/26 03:15:36;;;;;;;15.37;7.43;;;-0.20;99.90;;;;;;4164017;28;20316;-51
2024/03/26 03:17:38;;;;;;;20.87;8.80;;;-0.20;99.90;;;;;;4164618;28;20296;-58
2024/03/26 03:19:39;;;;;;;19.73;9.83;;;-0.20;99.90;;;;;;4171419;28;20254;-55
2024/03/26 03:21:40;;;;;;;23.10;11.10;;;-0.20;99.90;;;;;;4179300;28;20274;-54
2024/03/26 03:23:41;;;;;;;28.70;11.57;;;-0.20;99.90;;;;;;4178836;28;20700;-55
2024/03/26 03:25:43;;;;;;;47.27;22.00;;;-0.30;99.90;;;;;;4178367;28;20309;-56
2024/03/26 03:27:44;;;;;;;32.73;15.20;;;-0.30;99.90;;;;;;4169286;28;20267;-55
2024/03/26 03:29:46;;;;;;;22.03;11.27;;;-0.30;99.90;;;;;;4167997;28;20332;-56
2024/03/26 03:31:47;;;;;;;25.40;10.70;;;-0.40;99.90;;;;;;4163746;28;20771;-55
2024/03/26 03:33:49;;;;;;;18.87;8.50;;;-0.40;99.90;;;;;;4162130;28;20279;-53
2024/03/26 03:35:50;;;;;;;15.50;7.60;;;-0.40;99.90;;;;;;4163505;28;20348;-54
2024/03/26 03:37:52;;;;;;;14.80;7.40;;;-0.40;99.90;;;;;;4161155;28;20826;-48
2024/03/26 03:39:53;;;;;;;13.67;6.70;;;-0.40;99.90;;;;;;4163130;28;20270;-52
2024/03/26 03:41:54;;;;;;;10.87;7.07;;;-0.50;99.90;;;;;;4161896;28;20341;-52
2024/03/26 03:43:56;;;;;;;10.87;6.27;;;-0.50;99.90;;;;;;4164032;28;20747;-52
2024/03/26 03:45:57;;;;;;;11.83;6.63;;;-0.50;99.90;;;;;;4167277;28;20274;-50
2024/03/26 03:47:58;;;;;;;17.60;7.70;;;-0.50;99.90;;;;;;4168414;28;20266;-54
2024/03/26 03:49:59;;;;;;;12.53;7.07;;;-0.50;99.90;;;;;;4165857;28;20376;-50
2024/03/26 03:52:01;;;;;;;17.40;6.70;;;-0.50;99.90;;;;;;4162547;28;20337;-56
2024/03/26 03:54:02;;;;;;;17.30;7.90;;;-0.50;99.90;;;;;;4162032;28;20317;-56
2024/03/26 03:56:03;;;;;;;12.03;6.57;;;-0.50;99.90;;;;;;4167950;28;20321;-52
2024/03/26 03:58:05;;;;;;;13.57;7.30;;;-0.50;99.90;;;;;;4167517;28;20360;-54
2024/03/26 04:00:07;;;;;;;17.43;7.03;;;-0.50;99.90;;;;;;4166675;28;20295;-53
2024/03/26 04:02:08;;;;;;;11.90;7.53;;;-0.60;99.90;;;;;;4168566;28;20278;-55
2024/03/26 04:04:09;;;;;;;13.13;7.43;;;-0.70;99.90;;;;;;4167857;28;20274;-53
2024/03/26 04:06:11;;;;;;;13.13;6.73;;;-0.70;99.90;;;;;;4168373;28;20262;-53
2024/03/26 04:08:12;;;;;;;13.20;6.93;;;-0.70;99.90;;;;;;4166497;28;20333;-54
2024/03/26 04:10:13;;;;;;;12.87;6.57;;;-0.70;99.90;;;;;;4168626;28;20367;-55
2024/03/26 04:12:15;;;;;;;13.30;7.07;;;-0.80;99.90;;;;;;4172798;28;20270;-50
2024/03/26 04:14:16;;;;;;;14.57;6.47;;;-0.80;99.90;;;;;;4179173;28;20595;-53
2024/03/26 04:16:17;;;;;;;23.83;7.20;;;-0.80;99.90;;;;;;4176126;28;20629;-50
2024/03/26 04:18:18;;;;;;;14.03;7.23;;;-0.80;99.90;;;;;;4169428;28;20270;-55
2024/03/26 04:20:20;;;;;;;16.97;7.57;;;-0.70;99.90;;;;;;4166852;28;20266;-55
2024/03/26 04:22:21;;;;;;;21.10;8.13;;;-0.70;99.90;;;;;;4167793;28;20325;-55
2024/03/26 04:24:22;;;;;;;16.87;7.53;;;-0.70;99.90;;;;;;4176293;28;20273;-53
2024/03/26 04:26:23;;;;;;;23.00;8.90;;;-0.60;99.90;;;;;;4173655;28;20782;-56
2024/03/26 04:28:28;;;;;;;15.90;8.83;;;-0.50;99.90;;;;;;4168371;28;20327;-54
2024/03/26 04:30:29;;;;;;;19.90;8.10;;;-0.50;99.90;;;;;;4166739;28;20821;-54
2024/03/26 04:32:30;;;;;;;14.40;7.37;;;-0.50;99.90;;;;;;4167521;28;20275;-50
2024/03/26 04:34:32;;;;;;;14.80;7.57;;;-0.40;99.90;;;;;;4166638;28;20301;-56
2024/03/26 04:36:33;;;;;;;16.43;6.67;;;-0.30;99.90;;;;;;4167847;28;20275;-55
2024/03/26 04:38:34;;;;;;;12.37;6.33;;;0.00;99.90;;;;;;4166416;28;20282;-51
2024/03/26 04:40:37;;;;;;;13.60;5.93;;;0.50;99.90;;;;;;4166499;28;20623;-51
2024/03/26 04:42:38;;;;;;;14.37;6.97;;;1.00;99.90;;;;;;4161077;28;20266;-50
2024/03/26 04:44:40;;;;;;;16.10;7.23;;;1.40;99.90;;;;;;4165588;28;20278;-54
2024/03/26 04:46:41;;;;;;;14.63;8.23;;;1.90;99.90;;;;;;4161800;28;20329;-54
2024/03/26 04:48:42;;;;;;;17.77;7.63;;;2.30;99.90;;;;;;4172317;28;20267;-56
2024/03/26 04:50:46;;;;;;;18.93;8.70;;;2.70;99.90;;;;;;4160555;28;20274;-55
2024/03/26 04:52:47;;;;;;;14.70;8.13;;;3.00;99.90;;;;;;4174344;28;20332;-53
2024/03/26 04:54:49;;;;;;;12.37;7.57;;;3.40;99.90;;;;;;4175497;28;20462;-54
2024/03/26 04:56:51;;;;;;;10.23;6.30;;;3.80;99.90;;;;;;4160820;28;20270;-56
2024/03/26 04:58:52;;;;;;;11.17;6.87;;;4.30;99.90;;;;;;4160869;28;20324;-51
2024/03/26 05:00:53;;;;;;;9.10;5.73;;;4.70;99.90;;;;;;4160108;28;20294;-55
2024/03/26 05:02:57;;;;;;;11.53;6.87;;;5.10;99.90;;;;;;4161067;28;20762;-54
2024/03/26 05:04:58;;;;;;;18.83;9.20;;;5.70;99.90;;;;;;4160616;28;20275;-54
2024/03/26 05:07:00;;;;;;;18.43;9.17;;;6.20;99.90;;;;;;4161313;28;20558;-56
2024/03/26 05:09:04;;;;;;;15.47;7.43;;;6.40;99.90;;;;;;4167264;28;20746;-56
2024/03/26 05:11:05;;;;;;;16.37;7.07;;;6.80;99.90;;;;;;4171937;28;21930;-54
2024/03/26 05:13:06;;;;;;;14.60;6.83;;;7.20;99.90;;;;;;4174688;28;20110;-54
2024/03/26 05:15:08;;;;;;;15.57;8.07;;;7.70;99.90;;;;;;4177242;28;20052;-57
2024/03/26 05:17:09;;;;;;;11.43;5.77;;;8.20;99.90;;;;;;4176437;28;20098;-58
2024/03/26 05:19:10;;;;;;;12.33;6.30;;;8.50;99.90;;;;;;4177696;28;20033;-56
2024/03/26 05:21:13;;;;;;;9.67;6.07;;;8.70;99.90;;;;;;4167426;28;20029;-55
2024/03/26 05:23:14;;;;;;;11.53;6.43;;;8.70;99.90;;;;;;4159663;28;20065;-57
2024/03/26 05:25:16;;;;;;;12.27;5.50;;;9.20;99.90;;;;;;4159969;28;20095;-56
2024/03/26 05:27:17;;;;;;;10.57;5.60;;;9.60;99.90;;;;;;4160805;28;20049;-57
2024/03/26 05:29:18;;;;;;;11.30;6.30;;;9.80;99.90;;;;;;4160244;28;20049;-54
2024/03/26 05:31:21;;;;;;;11.47;6.70;;;10.20;99.90;;;;;;4161158;28;20447;-53
2024/03/26 05:33:22;;;;;;;12.97;7.13;;;10.50;99.90;;;;;;4160711;28;20075;-57
2024/03/26 05:35:23;;;;;;;18.23;8.53;;;11.00;99.00;;;;;;4160019;28;20091;-59
2024/03/26 05:37:24;;;;;;;19.23;7.43;;;10.90;97.60;;;;;;4160658;28;20041;-53
2024/03/26 05:39:26;;;;;;;13.20;7.43;;;10.20;97.50;;;;;;4160136;28;20029;-59
2024/03/26 05:41:27;;;;;;;13.30;6.80;;;10.10;98.10;;;;;;4161967;28;20099;-51
2024/03/26 05:43:28;;;;;;;19.83;7.20;;;10.30;98.40;;;;;;4176425;28;20455;-56
2024/03/26 05:45:29;;;;;;;13.43;6.77;;;10.70;97.50;;;;;;4175799;28;20448;-55
2024/03/26 05:47:31;;;;;;;12.83;6.23;;;11.20;96.90;;;;;;4174366;28;20863;-52
2024/03/26 05:49:32;;;;;;;17.40;8.27;;;11.50;96.30;;;;;;4164847;28;20437;-60
2024/03/26 05:51:33;;;;;;;15.87;7.77;;;11.90;95.90;;;;;;4159733;28;20494;-55
2024/03/26 05:53:35;;;;;;;14.57;7.33;;;12.10;95.20;;;;;;4161038;28;20033;-51
2024/03/26 05:55:36;;;;;;;14.23;6.87;;;12.70;95.20;;;;;;4160676;28;20042;-50
2024/03/26 05:57:38;;;;;;;14.70;7.20;;;13.00;94.00;;;;;;4176651;28;20040;-55
2024/03/26 05:59:40;;;;;;;10.23;6.53;;;12.90;93.30;;;;;;4176438;28;20037;-56
2024/03/26 06:01:41;;;;;;;17.77;7.03;;;12.90;93.40;;;;;;4172735;28;20090;-57
2024/03/26 06:03:43;;;;;;;13.13;6.80;;;13.00;92.70;;;;;;4180310;28;20507;-56
2024/03/26 06:05:45;;;;;;;11.10;6.77;;;13.20;92.50;;;;;;4179580;28;20037;-53
2024/03/26 06:07:46;;;;;;;13.90;6.83;;;13.30;92.00;;;;;;4180527;28;20045;-54
2024/03/26 06:09:48;;;;;;;12.03;6.87;;;13.40;91.40;;;;;;4179745;28;20118;-55
2024/03/26 06:11:49;;;;;;;13.23;8.23;;;13.20;91.10;;;;;;4180830;28;20456;-54
2024/03/26 06:13:50;;;;;;;12.17;7.03;;;12.80;91.30;;;;;;4179857;28;20045;-54
2024/03/26 06:16:11;;;;;;;10.90;7.20;;;12.70;91.10;;;;;;4180516;28;20033;-54
2024/03/26 06:18:12;;;;;;;16.58;7.90;;;12.90;90.70;;;;;;4179708;28;20071;-55
2024/03/26 06:20:14;;;;;;;14.43;8.40;;;13.40;90.60;;;;;;4180377;28;20044;-55
2024/03/26 06:22:15;;;;;;;11.97;6.63;;;13.90;90.20;;;;;;4179006;28;20045;-57
2024/03/26 06:24:16;;;;;;;10.03;6.60;;;14.30;88.80;;;;;;4180695;28;20461;-58
2024/03/26 06:26:17;;;;;;;16.23;6.73;;;14.30;88.40;;;;;;4179007;28;20086;-57
2024/03/26 06:28:19;;;;;;;8.80;6.23;;;14.60;87.90;;;;;;4180425;28;20029;-57
2024/03/26 06:30:20;;;;;;;11.73;6.33;;;14.80;87.00;;;;;;4179312;28;20044;-53
2024/03/26 06:32:21;;;;;;;10.87;5.97;;;14.60;86.20;;;;;;4180216;28;20029;-53
2024/03/26 06:34:23;;;;;;;11.53;5.50;;;14.30;86.30;;;;;;4179350;28;20789;-53
2024/03/26 06:36:24;;;;;;;7.37;4.83;;;14.40;86.30;;;;;;4179486;28;20029;-52
2024/03/26 06:38:25;;;;;;;8.60;5.17;;;14.50;85.90;;;;;;4179524;28;20044;-52
2024/03/26 06:40:26;;;;;;;8.80;5.17;;;14.20;85.30;;;;;;4178843;28;20198;-56
2024/03/26 06:42:29;;;;;;;9.93;5.90;;;14.20;85.50;;;;;;4180573;28;20116;-57
2024/03/26 06:44:30;;;;;;;10.70;6.50;;;13.90;85.60;;;;;;4178436;28;20472;-55
2024/03/26 06:46:31;;;;;;;12.67;6.73;;;13.40;85.90;;;;;;4178313;28;20091;-55
2024/03/26 06:48:32;;;;;;;14.20;5.83;;;13.00;86.60;;;;;;4178441;28;20497;-57
2024/03/26 06:50:34;;;;;;;8.53;5.87;;;12.80;87.40;;;;;;4179453;28;20049;-51
2024/03/26 06:52:35;;;;;;;12.10;6.63;;;12.70;87.90;;;;;;4178889;28;20071;-52
2024/03/26 06:54:36;;;;;;;10.57;5.90;;;13.00;87.50;;;;;;4180095;28;20116;-53
2024/03/26 06:56:37;;;;;;;9.43;5.63;;;12.70;87.70;;;;;;4178755;28;20044;-55
2024/03/26 06:58:41;;;;;;;7.93;5.43;;;12.20;88.30;;;;;;4179664;28;20114;-55
2024/03/26 07:00:42;;;;;;;8.53;5.20;;;12.10;89.00;;;;;;4178821;28;20045;-50
2024/03/26 07:02:45;;;;;;;8.93;5.07;;;11.90;89.30;;;;;;4179299;28;20040;-57
2024/03/26 07:04:46;;;;;;;10.30;4.87;;;11.80;89.10;;;;;;4179468;28;20025;-57
2024/03/26 07:06:47;;;;;;;13.03;6.23;;;11.30;90.00;;;;;;4178744;28;20114;-57
2024/03/26 07:08:48;;;;;;;11.70;6.40;;;10.90;90.30;;;;;;4179484;28;20033;-55
2024/03/26 07:10:50;;;;;;;13.67;6.50;;;11.00;90.60;;;;;;4178049;28;20053;-49
2024/03/26 07:12:51;;;;;;;23.80;9.43;;;11.30;90.70;;;;;;4178935;28;20078;-54
2024/03/26 07:14:53;;;;;;;17.07;9.00;;;10.90;90.40;;;;;;4178433;28;20071;-56
2024/03/26 07:16:54;;;;;;;17.87;9.30;;;10.60;90.80;;;;;;4179407;28;20070;-54
2024/03/26 07:18:55;;;;;;;20.07;9.47;;;10.50;91.10;;;;;;4178292;28;20382;-56
2024/03/26 07:21:00;;;;;;;18.37;8.53;;;11.10;91.10;;;;;;4179692;28;20090;-53
2024/03/26 07:23:01;;;;;;;12.30;5.73;;;11.40;90.70;;;;;;4178198;28;20033;-56
2024/03/26 07:25:03;;;;;;;9.67;5.17;;;11.20;90.60;;;;;;4179532;28;20461;-55
2024/03/26 07:27:04;;;;;;;9.13;5.07;;;11.20;90.70;;;;;;4178232;28;20071;-53
2024/03/26 07:29:06;;;;;;;13.07;4.90;;;10.90;91.10;;;;;;4179187;28;20033;-54
2024/03/26 07:31:09;;;;;;;12.77;6.23;;;10.70;91.30;;;;;;4177894;28;20086;-57
2024/03/26 07:33:10;;;;;;;9.57;5.10;;;10.40;91.90;;;;;;4178881;28;20041;-55
2024/03/26 07:35:11;;;;;;;8.77;5.27;;;10.10;92.60;;;;;;4178442;28;20029;-57
2024/03/26 07:37:13;;;;;;;8.87;4.97;;;9.90;92.90;;;;;;4178423;28;20033;-56
2024/03/26 07:39:19;;;;;;;9.53;4.70;;;9.70;93.60;;;;;;4177898;28;20067;-55
2024/03/26 07:41:21;;;;;;;6.67;4.40;;;9.40;94.10;;;;;;4178128;28;20087;-54
2024/03/26 07:43:22;;;;;;;14.50;3.50;;;9.40;94.70;;;;;;4179562;28;20194;-57
2024/03/26 07:45:24;;;;;;;3.03;1.87;;;9.50;94.10;;;;;;4177560;28;20440;-56
2024/03/26 07:47:25;;;;;;;5.37;3.87;;;9.40;94.20;;;;;;4178773;28;20091;-57
2024/03/26 07:49:26;;;;;;;6.73;4.23;;;9.50;94.50;;;;;;4177502;28;20064;-54
2024/03/26 07:51:27;;;;;;;8.83;4.73;;;9.50;94.80;;;;;;4178640;28;20041;-56
2024/03/26 07:53:29;;;;;;;7.10;3.87;;;9.80;95.00;;;;;;4177292;28;20091;-56
2024/03/26 07:55:31;;;;;;;7.13;4.10;;;9.70;94.90;;;;;;4178457;28;20045;-54
2024/03/26 07:57:32;;;;;;;8.63;3.73;;;9.60;95.30;;;;;;4177736;28;20025;-53
2024/03/26 07:59:34;;;;;;;8.53;3.90;;;9.60;94.60;;;;;;4178357;28;20041;-54
2024/03/26 08:01:35;;;;;;;5.90;3.03;;;9.60;95.00;;;;;;4177345;28;20504;-57
2024/03/26 08:03:37;;;;;;;6.23;3.00;;;9.90;94.60;;;;;;4178499;28;20029;-58
2024/03/26 08:05:38;;;;;;;4.63;2.20;;;10.00;94.50;;;;;;4177536;28;20098;-52
2024/03/26 08:07:39;;;;;;;5.80;2.20;;;10.00;94.10;;;;;;4178166;28;20441;-60
2024/03/26 08:09:40;;;;;;;2.97;1.90;;;9.90;94.50;;;;;;4177739;28;20414;-56
2024/03/26 08:11:42;;;;;;;2.83;2.00;;;9.90;94.20;;;;;;4177602;28;20094;-52
2024/03/26 08:13:43;;;;;;;4.07;1.93;;;10.00;94.40;;;;;;4178470;28;20041;-54
2024/03/26 08:15:46;;;;;;;4.67;1.17;;;9.90;93.50;;;;;;4177448;28;20446;-56
2024/03/26 08:17:48;;;;;;;2.80;1.40;;;9.90;93.70;;;;;;4178187;28;20049;-57
2024/03/26 08:19:50;;;;;;;2.47;1.87;;;9.90;93.10;;;;;;4177052;28;20374;-56
2024/03/26 08:21:51;;;;;;;1.30;1.00;;;9.90;93.50;;;;;;4178651;28;20025;-58
2024/03/26 08:23:52;;;;;;;4.20;1.10;;;10.00;93.30;;;;;;4177424;28;20097;-54
2024/03/26 08:25:54;;;;;;;1.53;1.07;;;10.00;93.40;;;;;;4178283;28;20366;-54
2024/03/26 08:27:55;;;;;;;2.20;0.90;;;9.90;93.00;;;;;;4177046;28;20078;-57
2024/03/26 08:29:58;;;;;;;2.77;0.90;;;10.00;92.90;;;;;;4178062;28;20041;-56
2024/03/26 08:31:59;;;;;;;2.20;1.10;;;10.20;92.80;;;;;;4176939;28;20087;-55
2024/03/26 08:34:02;;;;;;;4.63;1.23;;;10.40;92.10;;;;;;4178392;28;20451;-59
2024/03/26 08:36:04;;;;;;;3.67;1.40;;;10.50;92.00;;;;;;4176835;28;20032;-57
2024/03/26 08:38:06;;;;;;;1.07;0.80;;;10.50;92.10;;;;;;4177198;28;20473;-56
2024/03/26 08:40:08;;;;;;;2.13;0.83;;;10.60;91.20;;;;;;4176923;28;20071;-57
2024/03/26 08:42:11;;;;;;;2.37;0.70;;;10.80;91.40;;;;;;4177303;28;20555;-58
2024/03/26 08:44:12;;;;;;;1.80;0.73;;;11.10;91.20;;;;;;4177331;28;20094;-55
2024/03/26 08:46:13;;;;;;;0.67;0.50;;;11.10;90.00;;;;;;4176966;28;20049;-57
2024/03/26 08:48:15;;;;;;;1.63;0.53;;;11.20;90.20;;;;;;4177407;28;20106;-57
2024/03/26 08:50:17;;;;;;;1.23;0.80;;;11.20;90.00;;;;;;4176393;28;20083;-55
2024/03/26 08:52:18;;;;;;;0.97;0.67;;;11.30;89.60;;;;;;4178037;28;20580;-54
2024/03/26 08:54:20;;;;;;;0.60;0.60;;;11.20;88.80;;;;;;4176567;28;20103;-55
2024/03/26 08:56:22;;;;;;;1.80;0.60;;;11.20;89.10;;;;;;4178213;28;20037;-55
2024/03/26 08:58:23;;;;;;;1.27;0.73;;;11.30;89.40;;;;;;4176643;28;20393;-58
2024/03/26 09:00:26;;;;;;;0.93;0.70;;;11.40;88.80;;;;;;4177784;28;20049;-57
2024/03/26 09:02:28;;;;;;;6.30;1.00;;;11.50;88.10;;;;;;4176907;28;20071;-52
2024/03/26 09:04:29;;;;;;;1.10;0.70;;;11.50;87.70;;;;;;4177632;28;20118;-57
2024/03/26 09:06:30;;;;;;;0.97;0.70;;;11.30;88.00;;;;;;4176512;28;20048;-59
2024/03/26 09:08:31;;;;;;;2.20;0.50;;;11.20;88.10;;;;;;4177553;28;20099;-56
2024/03/26 09:10:33;;;;;;;2.10;0.70;;;11.40;88.60;;;;;;4176591;28;20053;-52
2024/03/26 09:12:34;;;;;;;2.40;0.57;;;11.60;87.70;;;;;;4177809;28;20088;-55
2024/03/26 09:14:36;;;;;;;1.50;0.60;;;11.50;87.10;;;;;;4176599;28;20040;-55
2024/03/26 09:16:37;;;;;;;0.50;0.40;;;11.60;87.10;;;;;;4176980;28;20071;-58
2024/03/26 09:18:38;;;;;;;1.13;0.60;;;11.60;86.40;;;;;;4177302;28;20040;-58
2024/03/26 09:20:40;;;;;;;0.70;0.40;;;11.60;86.60;;;;;;4176846;28;20132;-59
2024/03/26 09:22:41;;;;;;;1.87;0.77;;;11.70;87.00;;;;;;4177585;28;20464;-55
2024/03/26 09:24:43;;;;;;;2.20;0.80;;;11.70;86.00;;;;;;4176439;28;20041;-53
2024/03/26 09:26:44;;;;;;;0.70;0.70;;;11.70;85.90;;;;;;4177849;28;20465;-55
2024/03/26 09:28:45;;;;;;;2.33;0.80;;;11.80;86.20;;;;;;4176259;28;20032;-56
2024/03/26 09:30:51;;;;;;;1.03;0.50;;;11.80;85.70;;;;;;4177088;28;20083;-55
2024/03/26 09:32:52;;;;;;;3.20;0.87;;;11.70;85.90;;;;;;4176308;28;20391;-54
2024/03/26 09:34:53;;;;;;;0.87;0.87;;;11.70;86.20;;;;;;4176645;28;20543;-56
2024/03/26 09:36:56;;;;;;;2.40;0.70;;;11.70;86.10;;;;;;4176146;28;20044;-56
2024/03/26 09:38:57;;;;;;;0.40;0.40;;;11.70;86.10;;;;;;4177279;28;20041;-56
2024/03/26 09:41:02;;;;;;;1.20;0.70;;;11.70;86.00;;;;;;4176600;28;20465;-55
2024/03/26 09:43:07;;;;;;;1.23;0.70;;;11.80;85.40;;;;;;4177284;28;20094;-59
2024/03/26 09:45:13;;;;;;;0.50;0.50;;;11.80;86.10;;;;;;4176279;28;20037;-51
2024/03/26 09:47:15;;;;;;;0.60;0.40;;;12.10;85.70;;;;;;4176941;28;20443;-54
2024/03/26 09:49:19;;;;;;;1.83;0.70;;;12.30;85.30;;;;;;4176544;28;20126;-54
2024/03/26 09:51:21;;;;;;;1.10;0.80;;;12.60;85.10;;;;;;4176766;28;20029;-56
2024/03/26 09:53:25;;;;;;;1.80;0.60;;;12.70;84.60;;;;;;4177158;28;20094;-55
2024/03/26 09:55:31;;;;;;;1.37;0.80;;;12.70;83.20;;;;;;4176247;28;20083;-57
2024/03/26 09:57:32;;;;;;;0.83;0.57;;;12.70;83.20;;;;;;4176722;28;20087;-57
2024/03/26 09:59:34;;;;;;;2.00;0.70;;;12.70;83.70;;;;;;4175625;28;20107;-56
2024/03/26 10:01:36;;;;;;;0.77;0.50;;;13.00;83.60;;;;;;4177151;28;20057;-55
2024/03/26 10:03:38;;;;;;;0.80;0.50;;;12.90;82.30;;;;;;4175921;28;20045;-56
2024/03/26 10:05:39;;;;;;;0.50;0.50;;;12.70;82.00;;;;;;4176768;28;20182;-56
2024/03/26 10:07:41;;;;;;;2.27;0.70;;;12.60;82.20;;;;;;4175813;28;20018;-54
2024/03/26 10:09:43;;;;;;;1.00;0.60;;;12.70;81.50;;;;;;4176743;28;20323;-53
2024/03/26 10:11:46;;;;;;;1.50;0.70;;;12.50;81.20;;;;;;4175558;28;20091;-52
2024/03/26 10:13:47;;;;;;;1.00;0.70;;;12.40;81.50;;;;;;4177346;28;20135;-56
2024/03/26 10:15:49;;;;;;;0.70;0.60;;;12.50;82.00;;;;;;4176002;28;20099;-52
2024/03/26 10:17:50;;;;;;;2.20;0.80;;;12.40;81.50;;;;;;4176623;28;20037;-54
2024/03/26 10:19:52;;;;;;;3.60;0.80;;;12.40;81.60;;;;;;4175701;28;20037;-57
2024/03/26 10:21:54;;;;;;;3.87;2.07;;;12.40;81.30;;;;;;4176545;28;20045;-54
2024/03/26 10:23:55;;;;;;;2.30;1.00;;;12.30;81.40;;;;;;4176573;28;20037;-55
2024/03/26 10:25:57;;;;;;;1.67;0.90;;;12.20;81.00;;;;;;4176240;28;20036;-57
2024/03/26 10:28:01;;;;;;;1.50;0.90;;;12.10;80.00;;;;;;4176114;28;20098;-55
2024/03/26 10:30:08;;;;;;;2.00;0.83;;;12.00;80.50;;;;;;4175495;28;20119;-54